Terminal Aerodrome Forecast
Issued by NWS Sterling, VA

Current Version | Previous Version | Text Only | Print | Product List | Glossary Off
Versions: 1 2 3 4 5 6 7 8 9 10 11 12 13 14 15 16 17 18 19 20 21 22 23 24 25

034
FTUS41 KLWX 190528
TAFIAD
TAF
KIAD 190528Z 1906/2012 20017G30KT P6SM -SHRA OVC090
     FM190900 25020G35KT P6SM OVC045
     FM191200 29024G39KT P6SM SCT040
     FM192100 30018G32KT P6SM SCT040
     FM200100 30013G24KT P6SM SCT040
     FM200600 29010G17KT P6SM SCT040=

USA.gov is the U.S. government's official web portal to all federal, state and local government web resources and services.